Time;durP1;ratioP1;P1;durP2;ratioP2;P2;SDS_P1;SDS_P2;PMS_P1;PMS_P2;Temp;Humidity;BMP_temperature;BMP_pressure;BME280_temperature;BME280_humidity;BME280_pressure;Samples;Min_cycle;Max_cycle;Signal;HPM_P1;HPM_P2
2022/05/12 00:00:09;;;;;;;5.97;1.80;;;11.50;99.90;;;;;;5085402;27;38432;-77
2022/05/12 00:02:36;;;;;;;5.43;1.33;;;11.50;99.90;;;;;;5083086;27;37106;-77
2022/05/12 00:05:05;;;;;;;4.53;1.42;;;11.40;99.90;;;;;;5074616;27;39559;-77
2022/05/12 00:07:31;;;;;;;2.53;1.17;;;11.40;99.90;;;;;;5079914;28;38006;-77
2022/05/12 00:09:58;;;;;;;6.03;1.30;;;11.40;99.90;;;;;;5085095;27;37742;-77
2022/05/12 00:12:24;;;;;;;4.80;1.38;;;11.40;99.90;;;;;;5078347;28;36214;-76
2022/05/12 00:14:50;;;;;;;4.18;1.55;;;11.40;99.90;;;;;;5079455;27;38404;-77
2022/05/12 00:17:16;;;;;;;6.18;1.50;;;11.50;99.90;;;;;;5081517;27;39531;-77
2022/05/12 00:19:42;;;;;;;1.83;1.17;;;11.40;99.90;;;;;;5087147;28;38001;-77
2022/05/12 00:22:08;;;;;;;2.90;1.55;;;11.40;99.90;;;;;;5076531;28;37788;-77
2022/05/12 00:24:34;;;;;;;4.32;1.33;;;11.40;99.90;;;;;;5069936;28;38331;-77
2022/05/12 00:27:02;;;;;;;2.55;1.35;;;11.40;99.90;;;;;;5082622;28;38253;-77
2022/05/12 00:29:28;;;;;;;3.63;1.48;;;11.40;99.90;;;;;;5070939;27;47295;-77
2022/05/12 00:31:54;;;;;;;4.38;1.30;;;11.30;99.90;;;;;;5078081;27;37071;-77
2022/05/12 00:34:21;;;;;;;5.60;1.70;;;11.30;99.90;;;;;;5073644;27;39546;-77
2022/05/12 00:36:48;;;;;;;4.88;1.45;;;11.30;99.90;;;;;;5071507;28;39162;-77
2022/05/12 00:39:15;;;;;;;6.93;1.83;;;11.30;99.90;;;;;;5071009;28;37964;-77
2022/05/12 00:41:41;;;;;;;5.38;1.73;;;11.30;99.90;;;;;;5081270;28;37291;-77
2022/05/12 00:44:10;;;;;;;4.32;2.03;;;11.30;99.90;;;;;;5073817;28;39576;-77
2022/05/12 00:46:40;;;;;;;10.70;2.13;;;11.30;99.90;;;;;;5077449;28;38820;-77
2022/05/12 00:49:18;;;;;;;5.30;1.83;;;11.30;99.90;;;;;;5113454;27;36883;-77
2022/05/12 00:51:58;;;;;;;3.78;2.03;;;11.30;99.90;;;;;;5055572;28;36993;-77
2022/05/12 00:54:38;;;;;;;8.02;1.85;;;11.30;99.90;;;;;;5109374;27;37569;-77
2022/05/12 00:57:07;;;;;;;5.00;2.33;;;11.30;99.90;;;;;;5074559;28;38813;-77
2022/05/12 00:59:34;;;;;;;8.85;2.10;;;11.30;99.90;;;;;;5077441;28;38859;-77
2022/05/12 01:02:02;;;;;;;4.55;1.77;;;11.30;99.90;;;;;;5076064;28;36605;-76
2022/05/12 01:04:31;;;;;;;6.57;2.10;;;11.20;99.90;;;;;;5077233;27;48682;-76
2022/05/12 01:06:58;;;;;;;7.32;2.38;;;11.20;99.90;;;;;;5090664;27;37343;-76
2022/05/12 01:09:27;;;;;;;8.25;2.50;;;11.20;99.90;;;;;;5076963;27;36839;-76
2022/05/12 01:11:53;;;;;;;6.35;2.08;;;11.20;99.90;;;;;;5080151;28;37981;-76
2022/05/12 01:14:19;;;;;;;7.28;2.53;;;11.20;99.90;;;;;;5079315;27;38058;-76
2022/05/12 01:16:54;;;;;;;6.35;1.80;;;11.20;99.90;;;;;;5081765;28;38424;-76
2022/05/12 01:19:30;;;;;;;5.43;2.97;;;11.20;99.90;;;;;;5079840;27;37394;-77
2022/05/12 01:21:57;;;;;;;4.70;2.47;;;11.20;99.90;;;;;;5077384;28;36235;-77
2022/05/12 01:24:32;;;;;;;8.13;2.40;;;11.20;99.90;;;;;;5073960;27;39910;-77
2022/05/12 01:27:18;;;;;;;15.35;3.78;;;11.20;99.90;;;;;;5076292;28;38512;-77
2022/05/12 01:29:44;;;;;;;7.57;2.58;;;11.30;99.90;;;;;;5074026;28;48332;-78
2022/05/12 01:32:10;;;;;;;8.23;2.50;;;11.20;99.90;;;;;;5071209;27;37822;-78
2022/05/12 01:34:36;;;;;;;7.25;2.72;;;11.20;99.90;;;;;;5059467;28;37312;-77
2022/05/12 01:37:03;;;;;;;10.43;3.63;;;11.20;99.90;;;;;;5077440;27;38301;-77
2022/05/12 01:39:29;;;;;;;8.80;3.22;;;11.20;99.90;;;;;;5079442;28;37811;-77
2022/05/12 01:41:55;;;;;;;9.07;3.10;;;11.20;99.90;;;;;;5084063;27;37665;-77
2022/05/12 01:44:21;;;;;;;9.25;2.60;;;11.20;99.90;;;;;;5078035;27;38780;-78
2022/05/12 01:46:48;;;;;;;11.90;3.75;;;11.20;99.90;;;;;;5080758;27;40032;-77
2022/05/12 01:49:14;;;;;;;9.48;3.63;;;11.20;99.90;;;;;;5076722;28;38056;-77
2022/05/12 01:51:40;;;;;;;12.85;3.55;;;11.20;99.90;;;;;;5073215;28;37235;-77
2022/05/12 01:54:09;;;;;;;10.32;3.85;;;11.20;99.90;;;;;;5078463;28;38962;-77
2022/05/12 01:56:35;;;;;;;10.60;3.60;;;11.20;99.90;;;;;;5082512;28;38185;-77
2022/05/12 01:59:01;;;;;;;13.45;3.72;;;11.20;99.90;;;;;;5060461;28;36923;-77
2022/05/12 02:01:27;;;;;;;12.32;3.60;;;11.20;99.90;;;;;;5079315;27;48872;-78
2022/05/12 02:03:53;;;;;;;12.02;3.33;;;11.10;99.90;;;;;;5077074;27;37633;-77
2022/05/12 02:06:20;;;;;;;9.77;3.95;;;11.20;99.90;;;;;;5071564;28;38557;-77
2022/05/12 02:08:46;;;;;;;11.23;3.72;;;11.20;99.90;;;;;;5074510;27;38894;-78
2022/05/12 02:11:12;;;;;;;14.20;4.93;;;11.30;99.90;;;;;;5087385;27;36788;-77
2022/05/12 02:13:38;;;;;;;8.43;4.45;;;11.30;99.90;;;;;;5076110;28;38857;-78
2022/05/12 02:16:04;;;;;;;13.50;4.30;;;11.30;99.90;;;;;;5065692;28;37327;-76
2022/05/12 02:18:30;;;;;;;12.48;4.75;;;11.30;99.90;;;;;;5090972;28;37473;-78
2022/05/12 02:20:58;;;;;;;13.55;4.68;;;11.30;99.90;;;;;;5067897;28;37144;-78
2022/05/12 02:23:24;;;;;;;13.10;4.60;;;11.30;99.90;;;;;;5077796;28;38825;-78
2022/05/12 02:25:50;;;;;;;9.35;4.72;;;11.30;99.90;;;;;;5096237;27;39408;-78
2022/05/12 02:28:16;;;;;;;12.38;5.72;;;11.30;99.90;;;;;;5085517;27;38085;-77
2022/05/12 02:30:43;;;;;;;10.05;5.32;;;11.30;99.90;;;;;;5079773;28;37209;-78
2022/05/12 02:33:10;;;;;;;12.35;4.45;;;11.30;99.90;;;;;;5080203;28;38628;-78
2022/05/12 02:35:38;;;;;;;11.43;4.95;;;11.30;99.90;;;;;;5086422;28;37683;-78
2022/05/12 02:38:05;;;;;;;9.40;5.22;;;11.30;99.90;;;;;;5075024;27;37930;-78
2022/05/12 02:40:32;;;;;;;10.77;5.00;;;11.20;99.90;;;;;;5083976;27;37138;-78
2022/05/12 02:42:58;;;;;;;10.38;5.07;;;11.20;99.90;;;;;;5094350;28;36598;-77
2022/05/12 02:45:26;;;;;;;12.68;5.30;;;11.20;99.90;;;;;;5081946;27;37572;-78
2022/05/12 02:47:52;;;;;;;14.95;5.72;;;11.20;99.90;;;;;;5082881;27;37833;-78
2022/05/12 02:50:19;;;;;;;14.13;6.07;;;11.20;99.90;;;;;;5076813;27;37547;-79
2022/05/12 02:52:45;;;;;;;11.98;5.10;;;11.20;99.90;;;;;;5078581;28;39439;-78
2022/05/12 02:55:13;;;;;;;13.85;5.47;;;11.20;99.90;;;;;;5073930;28;38469;-78
2022/05/12 02:57:39;;;;;;;12.80;5.72;;;11.20;99.90;;;;;;5073275;28;38857;-77
2022/05/12 03:00:09;;;;;;;12.50;5.28;;;11.10;99.90;;;;;;5077680;27;37351;-77
2022/05/12 03:02:35;;;;;;;11.73;4.97;;;11.10;99.90;;;;;;5078312;28;38981;-78
2022/05/12 03:05:02;;;;;;;13.73;6.28;;;11.10;99.90;;;;;;5078103;27;37711;-78
2022/05/12 03:07:28;;;;;;;9.10;5.53;;;11.10;99.90;;;;;;5079534;28;38744;-77
2022/05/12 03:09:54;;;;;;;9.93;6.05;;;11.00;99.90;;;;;;5081428;27;35944;-77
2022/05/12 03:12:22;;;;;;;13.38;6.80;;;11.00;99.90;;;;;;5077347;28;40583;-78
2022/05/12 03:14:48;;;;;;;13.85;6.53;;;11.00;99.90;;;;;;5076885;27;38953;-77
2022/05/12 03:17:15;;;;;;;11.45;5.88;;;10.90;99.90;;;;;;5084940;27;38341;-78
2022/05/12 03:19:41;;;;;;;13.82;6.30;;;10.90;99.90;;;;;;5087273;27;37340;-78
2022/05/12 03:22:10;;;;;;;10.48;6.25;;;10.80;99.90;;;;;;5085009;27;39650;-77
2022/05/12 03:24:36;;;;;;;11.57;5.93;;;10.80;99.90;;;;;;5086401;28;38265;-78
2022/05/12 03:27:02;;;;;;;12.18;6.82;;;10.80;99.90;;;;;;5082220;28;40006;-78
2022/05/12 03:29:28;;;;;;;12.18;7.05;;;10.80;99.90;;;;;;5082264;27;38775;-78
2022/05/12 03:31:54;;;;;;;10.35;6.82;;;10.80;99.90;;;;;;5086940;28;37677;-78
2022/05/12 03:34:21;;;;;;;10.90;7.40;;;10.80;99.90;;;;;;5078830;27;37084;-78
2022/05/12 03:36:47;;;;;;;15.70;7.95;;;10.80;99.90;;;;;;5084886;28;36976;-78
2022/05/12 03:39:13;;;;;;;15.13;8.20;;;10.90;99.90;;;;;;5088268;28;37560;-77
2022/05/12 03:41:39;;;;;;;13.82;7.43;;;10.90;99.90;;;;;;5080252;27;38921;-79
2022/05/12 03:46:50;;;;;;;9.63;6.32;;;10.80;99.90;;;;;;5083923;27;38334;-77
2022/05/12 03:49:16;;;;;;;11.60;6.97;;;10.80;99.90;;;;;;5079286;28;35802;-77
2022/05/12 03:51:42;;;;;;;16.80;7.75;;;10.70;99.90;;;;;;5080469;27;37915;-77
2022/05/12 03:54:08;;;;;;;14.40;8.25;;;10.70;99.90;;;;;;5078052;27;38991;-79
2022/05/12 03:56:35;;;;;;;18.02;7.70;;;10.60;99.90;;;;;;5081844;28;39403;-78
2022/05/12 03:59:04;;;;;;;16.13;7.97;;;10.60;99.90;;;;;;5096789;27;38284;-77
2022/05/12 04:01:30;;;;;;;14.40;7.32;;;10.60;99.90;;;;;;5074825;28;47250;-77
2022/05/12 04:03:56;;;;;;;13.13;6.65;;;10.50;99.90;;;;;;5076124;28;36978;-77
2022/05/12 04:06:22;;;;;;;16.30;7.35;;;10.50;99.90;;;;;;5064881;28;36413;-77
2022/05/12 04:08:48;;;;;;;14.00;6.68;;;10.50;99.90;;;;;;5078721;27;37866;-77
2022/05/12 04:11:15;;;;;;;17.05;7.63;;;10.50;99.90;;;;;;5074707;28;39231;-77
2022/05/12 04:13:43;;;;;;;15.00;7.70;;;10.50;99.90;;;;;;5065248;28;39096;-77
2022/05/12 04:16:09;;;;;;;12.70;7.15;;;10.50;99.90;;;;;;5073065;28;37381;-77
2022/05/12 04:18:35;;;;;;;14.70;7.00;;;10.50;99.90;;;;;;5074297;27;37612;-77
2022/05/12 04:21:01;;;;;;;10.65;6.35;;;10.40;99.90;;;;;;5077512;28;38688;-77
2022/05/12 04:23:27;;;;;;;9.05;6.45;;;10.40;99.90;;;;;;5077525;27;36718;-78
2022/05/12 04:25:53;;;;;;;10.27;7.03;;;10.40;99.90;;;;;;5084670;28;38997;-78
2022/05/12 04:28:20;;;;;;;10.27;6.25;;;10.40;99.90;;;;;;5070331;27;41139;-77
2022/05/12 04:30:47;;;;;;;12.30;6.90;;;10.30;99.90;;;;;;5057578;28;39655;-77
2022/05/12 04:35:58;;;;;;;11.20;7.00;;;10.30;99.90;;;;;;5054699;28;39267;-77
2022/05/12 04:38:26;;;;;;;12.57;6.35;;;10.30;99.90;;;;;;5055435;27;37351;-78
2022/05/12 04:40:52;;;;;;;12.02;6.43;;;10.30;99.90;;;;;;5055389;27;39400;-77
2022/05/12 04:43:18;;;;;;;12.68;7.10;;;10.30;99.90;;;;;;5085069;27;39023;-77
2022/05/12 04:45:47;;;;;;;15.43;7.20;;;10.30;99.90;;;;;;5058340;28;20087;-77
2022/05/12 04:48:13;;;;;;;11.32;6.20;;;10.30;99.90;;;;;;5090269;27;37352;-77
2022/05/12 04:50:42;;;;;;;13.07;6.00;;;10.30;99.90;;;;;;5055885;27;39975;-77
2022/05/12 04:53:09;;;;;;;13.27;7.07;;;10.30;99.90;;;;;;5050659;27;39257;-78
2022/05/12 04:55:36;;;;;;;10.20;5.78;;;10.40;99.90;;;;;;5094707;27;38435;-77
2022/05/12 04:58:02;;;;;;;13.32;6.05;;;10.40;99.90;;;;;;5048526;28;37577;-77
2022/05/12 05:00:40;;;;;;;12.48;5.95;;;10.40;99.90;;;;;;5087709;27;40744;-77
2022/05/12 05:03:08;;;;;;;19.73;6.65;;;10.50;99.90;;;;;;5069230;27;37176;-77
2022/05/12 05:05:34;;;;;;;9.82;6.30;;;10.50;99.90;;;;;;5053327;28;38258;-77
2022/05/12 05:08:01;;;;;;;12.27;5.35;;;10.60;99.90;;;;;;5060779;27;36906;-79
2022/05/12 05:10:27;;;;;;;12.48;5.25;;;10.60;99.90;;;;;;5088209;27;40631;-78
2022/05/12 05:12:53;;;;;;;10.75;6.28;;;10.70;99.90;;;;;;5056841;28;37993;-78
2022/05/12 05:15:24;;;;;;;12.20;4.85;;;10.70;99.90;;;;;;5055316;28;38520;-78
2022/05/12 05:17:51;;;;;;;11.85;5.18;;;10.80;99.90;;;;;;5053074;28;38787;-78
2022/05/12 05:20:24;;;;;;;10.95;4.93;;;10.90;99.90;;;;;;5052147;27;40224;-78
2022/05/12 05:22:50;;;;;;;8.35;3.72;;;11.10;99.90;;;;;;5049950;28;39076;-78
2022/05/12 05:25:16;;;;;;;8.18;4.15;;;11.30;99.90;;;;;;5079218;27;38667;-78
2022/05/12 05:27:45;;;;;;;7.03;4.15;;;11.50;99.90;;;;;;5080632;27;36355;-78
2022/05/12 05:30:18;;;;;;;11.25;4.15;;;11.70;99.90;;;;;;5048651;27;38736;-81
2022/05/12 05:32:46;;;;;;;8.95;3.80;;;11.90;99.90;;;;;;5047977;28;37804;-78
2022/05/12 05:35:12;;;;;;;6.47;3.50;;;12.00;99.90;;;;;;5047283;27;38793;-79
2022/05/12 05:37:39;;;;;;;8.38;3.75;;;12.20;99.90;;;;;;5057184;27;36911;-81
2022/05/12 05:40:06;;;;;;;9.45;3.55;;;12.30;99.90;;;;;;5045995;27;38741;-81
2022/05/12 05:42:32;;;;;;;9.52;3.33;;;12.50;99.90;;;;;;5048363;28;37787;-81
2022/05/12 05:44:58;;;;;;;10.45;3.50;;;12.50;99.90;;;;;;5078369;27;38703;-81
2022/05/12 05:47:25;;;;;;;9.88;3.30;;;12.40;99.90;;;;;;5058132;27;36894;-81
2022/05/12 05:49:51;;;;;;;8.35;3.00;;;12.40;99.90;;;;;;5085045;27;37744;-79
2022/05/12 05:55:02;;;;;;;5.15;3.00;;;12.40;99.90;;;;;;5049181;27;38594;-79
2022/05/12 05:57:33;;;;;;;8.73;2.25;;;12.40;99.90;;;;;;5076136;27;47048;-80
2022/05/12 06:00:04;;;;;;;5.97;2.78;;;12.50;99.90;;;;;;5069982;27;38216;-80
2022/05/12 06:02:32;;;;;;;5.30;2.83;;;12.70;99.90;;;;;;5082001;27;46879;-79
2022/05/12 06:04:58;;;;;;;6.10;2.58;;;12.80;99.90;;;;;;5074207;27;38040;-80
2022/05/12 06:07:24;;;;;;;6.82;2.63;;;13.00;99.90;;;;;;5055630;28;35362;-81
2022/05/12 06:09:51;;;;;;;11.15;2.80;;;13.20;99.90;;;;;;5052993;27;39463;-79
2022/05/12 06:12:17;;;;;;;5.32;2.63;;;13.20;99.90;;;;;;5049439;27;39031;-79
2022/05/12 06:14:44;;;;;;;5.28;2.45;;;13.20;99.90;;;;;;5041060;27;37778;-80
2022/05/12 06:17:10;;;;;;;7.22;2.13;;;13.40;99.90;;;;;;5081041;27;37335;-81
2022/05/12 06:19:36;;;;;;;8.85;2.67;;;13.70;99.90;;;;;;5059165;27;39005;-78
2022/05/12 06:22:03;;;;;;;7.03;2.63;;;13.90;99.90;;;;;;5045656;27;39505;-78
2022/05/12 06:24:29;;;;;;;5.53;2.25;;;14.20;99.90;;;;;;5057314;28;38613;-79
2022/05/12 06:26:55;;;;;;;7.30;2.17;;;14.40;99.90;;;;;;5056546;27;38296;-80
2022/05/12 06:29:21;;;;;;;9.52;1.90;;;14.50;99.90;;;;;;5053592;27;38868;-81
2022/05/12 06:31:47;;;;;;;7.65;1.90;;;14.60;99.90;;;;;;5043171;28;38535;-80
2022/05/12 06:34:14;;;;;;;3.97;1.92;;;14.60;99.90;;;;;;5057239;27;36945;-80
2022/05/12 06:36:41;;;;;;;7.95;2.40;;;14.70;99.90;;;;;;5051346;28;35249;-79
2022/05/12 06:39:07;;;;;;;7.03;2.10;;;15.00;99.90;;;;;;5082910;28;38122;-79
2022/05/12 06:41:34;;;;;;;4.88;2.03;;;15.10;99.90;;;;;;5052497;28;39247;-79
2022/05/12 06:44:01;;;;;;;3.72;1.88;;;15.10;99.90;;;;;;5050063;28;37052;-80
2022/05/12 06:46:27;;;;;;;5.93;1.85;;;15.30;99.90;;;;;;5083407;27;36334;-79
2022/05/12 06:48:53;;;;;;;5.38;1.77;;;15.60;99.90;;;;;;5059208;27;39744;-80
2022/05/12 06:51:20;;;;;;;7.13;1.83;;;15.80;99.90;;;;;;5056619;28;38629;-82
2022/05/12 06:53:47;;;;;;;6.03;1.90;;;15.80;99.90;;;;;;5048499;28;39764;-82
2022/05/12 06:56:13;;;;;;;6.30;2.38;;;15.90;99.90;;;;;;5061990;27;37277;-82
2022/05/12 06:58:40;;;;;;;4.40;1.77;;;16.10;99.90;;;;;;5082331;27;38501;-80
2022/05/12 07:01:06;;;;;;;3.88;1.75;;;16.20;99.90;;;;;;5060374;28;37394;-82
2022/05/12 07:03:32;;;;;;;8.35;1.77;;;16.30;99.90;;;;;;5097235;27;37647;-84
2022/05/12 07:05:58;;;;;;;7.47;2.45;;;16.10;99.90;;;;;;5067868;28;37181;-80
2022/05/12 07:08:26;;;;;;;4.20;1.50;;;16.10;99.90;;;;;;5078245;27;37852;-82
2022/05/12 07:10:52;;;;;;;3.92;1.70;;;16.20;99.90;;;;;;5075689;28;37575;-81
2022/05/12 07:13:20;;;;;;;8.15;1.90;;;16.30;99.90;;;;;;5062347;27;38168;-81
2022/05/12 07:15:50;;;;;;;4.43;1.58;;;16.20;99.90;;;;;;5050306;28;37729;-82
2022/05/12 07:18:18;;;;;;;6.90;1.60;;;16.40;99.90;;;;;;5064134;28;37853;-79
2022/05/12 07:28:59;;;;;;;5.72;1.75;;;16.90;99.90;;;;;;5052524;28;40284;-80
2022/05/12 07:31:25;;;;;;;5.88;1.52;;;16.80;99.90;;;;;;5074264;27;36735;-81
2022/05/12 07:33:52;;;;;;;5.68;1.50;;;16.90;99.90;;;;;;5080903;28;38077;-81
2022/05/12 07:36:22;;;;;;;4.45;1.27;;;17.30;99.90;;;;;;5077231;28;38222;-81
2022/05/12 07:38:48;;;;;;;6.80;1.33;;;17.00;99.90;;;;;;5064594;27;38787;-77
2022/05/12 07:41:16;;;;;;;8.40;1.98;;;17.30;99.90;;;;;;5096425;28;38712;-78
2022/05/12 07:43:44;;;;;;;2.38;1.10;;;17.40;99.90;;;;;;5064955;28;38004;-80
2022/05/12 07:46:12;;;;;;;7.93;1.50;;;17.60;99.90;;;;;;5076498;28;36977;-79
2022/05/12 07:48:39;;;;;;;4.93;1.20;;;17.50;99.90;;;;;;5076843;27;38694;-78
2022/05/12 07:51:06;;;;;;;4.07;1.27;;;17.60;99.90;;;;;;5084710;27;38098;-80
2022/05/12 07:53:32;;;;;;;4.00;1.10;;;17.70;99.90;;;;;;5076154;28;37864;-80
2022/05/12 07:55:58;;;;;;;4.22;1.27;;;17.70;99.90;;;;;;5079347;28;37685;-80
2022/05/12 07:58:25;;;;;;;5.05;1.33;;;17.90;99.90;;;;;;5077157;28;39742;-83
2022/05/12 08:00:53;;;;;;;4.40;1.40;;;18.20;99.90;;;;;;5070428;28;39919;-81
2022/05/12 08:03:20;;;;;;;3.13;1.10;;;18.60;99.90;;;;;;5079914;27;38973;-80
2022/05/12 08:05:46;;;;;;;3.63;1.10;;;18.50;99.90;;;;;;5071874;28;38316;-80
2022/05/12 08:08:12;;;;;;;4.15;1.10;;;17.90;99.90;;;;;;5068447;27;39034;-82
2022/05/12 08:10:39;;;;;;;5.70;1.13;;;17.80;99.90;;;;;;5070650;28;38510;-82
2022/05/12 08:13:07;;;;;;;3.00;1.30;;;18.10;99.90;;;;;;5071729;28;37074;-80
2022/05/12 08:15:33;;;;;;;3.25;0.88;;;18.30;99.90;;;;;;5069867;28;37317;-78
2022/05/12 08:17:59;;;;;;;2.70;1.00;;;18.20;99.90;;;;;;5068953;28;37358;-81
2022/05/12 08:20:25;;;;;;;3.50;1.08;;;18.10;99.90;;;;;;5073274;28;37608;-79
2022/05/12 08:22:52;;;;;;;5.07;1.13;;;18.30;99.90;;;;;;5071824;28;39788;-81
2022/05/12 08:25:18;;;;;;;4.03;0.80;;;18.40;99.90;;;;;;5079663;27;37817;-81
2022/05/12 08:27:45;;;;;;;6.57;0.90;;;18.40;99.90;;;;;;5079019;28;38275;-82
2022/05/12 08:30:15;;;;;;;6.30;1.25;;;18.60;99.90;;;;;;5082530;28;38276;-80
2022/05/12 08:32:42;;;;;;;2.13;1.30;;;18.60;99.90;;;;;;5068883;28;38576;-84
2022/05/12 08:35:09;;;;;;;4.55;1.20;;;18.00;99.90;;;;;;5071257;28;39486;-83
2022/05/12 08:37:36;;;;;;;3.55;1.20;;;18.40;99.90;;;;;;5070667;28;39473;-81
2022/05/12 08:40:04;;;;;;;4.32;0.80;;;18.50;99.90;;;;;;5068047;28;37886;-82
2022/05/12 08:42:46;;;;;;;6.50;1.10;;;18.90;99.90;;;;;;5081145;28;37312;-81
2022/05/12 08:45:16;;;;;;;4.55;1.20;;;18.80;99.90;;;;;;5077374;28;37080;-82
2022/05/12 08:47:45;;;;;;;8.20;1.50;;;18.40;99.90;;;;;;5070920;28;38684;-83
2022/05/12 08:50:20;;;;;;;3.15;0.90;;;18.60;99.90;;;;;;5059321;28;39129;-82
2022/05/12 08:53:02;;;;;;;10.23;1.48;;;19.00;99.90;;;;;;5070933;28;39285;-79
2022/05/12 08:55:37;;;;;;;3.33;1.13;;;19.00;99.90;;;;;;5076055;28;47324;-83
2022/05/12 08:58:05;;;;;;;6.72;1.40;;;18.90;99.90;;;;;;5071243;28;39908;-80
2022/05/12 09:00:50;;;;;;;4.88;1.40;;;18.70;99.90;;;;;;5082784;27;38707;-82
2022/05/12 09:03:48;;;;;;;3.03;1.08;;;19.10;99.90;;;;;;5092637;27;40207;-81
2022/05/12 09:06:18;;;;;;;6.28;1.30;;;19.20;99.90;;;;;;5073250;28;37305;-81
2022/05/12 09:09:08;;;;;;;2.80;0.80;;;19.50;99.90;;;;;;5072465;27;39120;-83
2022/05/12 09:11:43;;;;;;;4.65;1.10;;;19.80;99.90;;;;;;5082563;28;48774;-83
2022/05/12 09:14:33;;;;;;;4.28;1.13;;;19.90;99.90;;;;;;5073472;27;37854;-83
2022/05/12 09:17:01;;;;;;;3.35;1.00;;;19.90;99.90;;;;;;5079097;28;37079;-83
2022/05/12 09:19:28;;;;;;;4.10;1.23;;;20.10;99.90;;;;;;5091022;27;46927;-81
2022/05/12 09:21:55;;;;;;;3.17;1.20;;;19.90;99.90;;;;;;5069587;28;38814;-83
2022/05/12 09:24:21;;;;;;;4.88;2.72;;;19.40;99.90;;;;;;5076763;27;38485;-82
2022/05/12 09:27:06;;;;;;;5.68;1.40;;;19.00;99.90;;;;;;5077247;28;37865;-80
2022/05/12 09:29:48;;;;;;;4.97;1.35;;;18.90;99.90;;;;;;5073600;28;47784;-81
2022/05/12 09:32:20;;;;;;;5.50;1.05;;;19.50;99.90;;;;;;5071949;28;38505;-83
2022/05/12 09:35:04;;;;;;;4.35;1.33;;;19.90;99.90;;;;;;5082967;28;38779;-83
2022/05/12 09:37:32;;;;;;;4.22;1.30;;;19.50;99.90;;;;;;5071977;28;48637;-83
2022/05/12 09:40:15;;;;;;;4.32;1.35;;;19.10;99.90;;;;;;5074993;28;39812;-81
2022/05/12 09:42:53;;;;;;;3.60;1.48;;;19.30;99.90;;;;;;5064152;28;47276;-80
2022/05/12 09:45:32;;;;;;;3.72;1.23;;;19.70;99.90;;;;;;5061065;27;38887;-81
2022/05/12 09:48:20;;;;;;;4.30;1.35;;;19.50;99.90;;;;;;5070770;27;37581;-82
2022/05/12 09:50:48;;;;;;;3.60;1.10;;;19.10;99.90;;;;;;5060493;28;47557;-82
2022/05/12 09:53:24;;;;;;;3.88;1.10;;;19.10;99.90;;;;;;5059336;27;39435;-83
2022/05/12 09:56:07;;;;;;;4.90;1.63;;;19.50;99.90;;;;;;5058860;27;37811;-81
2022/05/12 09:58:38;;;;;;;2.63;0.80;;;19.50;99.90;;;;;;5055791;28;47622;-83
2022/05/12 10:01:16;;;;;;;4.35;1.20;;;19.60;99.90;;;;;;5051954;28;38863;-83
2022/05/12 10:09:26;;;;;;;3.60;0.80;;;19.70;99.90;;;;;;5063195;27;38999;-82
2022/05/12 10:12:15;;;;;;;3.33;1.13;;;19.90;99.90;;;;;;5049651;28;39816;-81
2022/05/12 10:14:47;;;;;;;3.83;1.08;;;20.20;99.90;;;;;;5076306;28;48476;-80
2022/05/12 10:17:28;;;;;;;3.97;0.90;;;20.20;99.90;;;;;;5082839;28;38043;-80
2022/05/12 10:19:55;;;;;;;4.20;1.17;;;20.50;99.90;;;;;;5077889;28;37279;-84
2022/05/12 10:22:33;;;;;;;5.28;1.05;;;20.60;99.90;;;;;;5075898;28;39120;-79
2022/05/12 10:25:26;;;;;;;3.42;0.90;;;20.90;99.90;;;;;;5075376;28;38336;-80
2022/05/12 10:28:02;;;;;;;3.47;1.20;;;21.00;99.90;;;;;;5070216;28;47285;-80
2022/05/12 10:30:46;;;;;;;2.47;0.90;;;21.10;99.90;;;;;;5077826;27;47391;-79
2022/05/12 10:33:32;;;;;;;4.07;0.80;;;21.20;99.90;;;;;;5077062;28;39001;-80
2022/05/12 10:36:26;;;;;;;2.72;0.77;;;21.50;99.90;;;;;;5074865;28;38802;-79
2022/05/12 10:39:01;;;;;;;4.80;0.98;;;21.80;99.90;;;;;;5078591;28;47660;-78
2022/05/12 10:41:39;;;;;;;2.97;0.80;;;21.80;99.90;;;;;;5065964;28;37634;-80
2022/05/12 10:44:08;;;;;;;3.15;0.85;;;21.30;99.90;;;;;;5075352;28;38341;-80
2022/05/12 10:46:46;;;;;;;3.80;1.20;;;21.20;99.90;;;;;;5073218;28;38542;-81
2022/05/12 10:49:44;;;;;;;4.63;1.02;;;21.30;99.90;;;;;;5079226;28;38893;-80
2022/05/12 10:52:41;;;;;;;4.65;0.90;;;20.90;99.90;;;;;;5060808;28;37403;-81
2022/05/12 10:55:07;;;;;;;5.18;0.90;;;20.50;99.90;;;;;;5074185;28;38507;-81
2022/05/12 10:57:49;;;;;;;5.72;1.55;;;20.60;99.90;;;;;;5056957;28;37480;-80
2022/05/12 11:00:39;;;;;;;2.35;0.80;;;21.00;99.90;;;;;;5055249;28;39764;-80
2022/05/12 11:03:17;;;;;;;2.85;0.90;;;21.60;99.90;;;;;;5065547;28;35816;-80
2022/05/12 11:05:47;;;;;;;5.20;0.90;;;21.50;99.90;;;;;;5070288;27;39194;-80
2022/05/12 11:08:29;;;;;;;1.80;0.73;;;21.50;99.90;;;;;;5074189;28;37434;-81
2022/05/12 11:11:12;;;;;;;2.83;0.90;;;21.70;99.90;;;;;;5056322;27;39033;-81
2022/05/12 11:14:11;;;;;;;2.78;0.70;;;21.70;99.90;;;;;;5065695;27;48480;-81
2022/05/12 11:16:50;;;;;;;4.50;0.82;;;21.50;99.90;;;;;;5060919;28;48666;-80
2022/05/12 11:19:18;;;;;;;4.63;0.80;;;22.00;99.90;;;;;;5078355;28;38435;-80
2022/05/12 11:22:03;;;;;;;4.15;1.00;;;21.50;99.90;;;;;;5084671;27;38217;-80
2022/05/12 11:24:40;;;;;;;6.85;0.98;;;21.30;99.90;;;;;;5078422;27;47684;-81
2022/05/12 11:27:24;;;;;;;2.55;0.98;;;21.30;99.90;;;;;;5075204;27;38865;-80
2022/05/12 11:29:53;;;;;;;2.55;1.02;;;21.70;99.90;;;;;;5077554;27;39453;-80
2022/05/12 11:33:02;;;;;;;5.70;1.40;;;21.80;99.90;;;;;;5055305;28;37659;-82
2022/05/12 11:35:37;;;;;;;1.98;0.77;;;21.50;99.90;;;;;;5098159;27;47265;-81
2022/05/12 11:38:07;;;;;;;3.97;0.90;;;21.30;99.90;;;;;;5082008;27;39408;-80
2022/05/12 11:40:44;;;;;;;2.20;0.60;;;21.20;99.90;;;;;;5081973;27;38682;-81
2022/05/12 11:46:22;;;;;;;3.67;1.13;;;22.50;99.90;;;;;;5056619;28;37660;-80
2022/05/12 11:49:26;;;;;;;2.92;0.80;;;22.50;99.90;;;;;;5097679;27;39564;-81
2022/05/12 11:52:25;;;;;;;4.10;1.23;;;22.30;99.90;;;;;;5065339;28;47331;-81
2022/05/12 11:55:02;;;;;;;3.00;0.90;;;22.50;99.90;;;;;;5077070;27;48435;-80
2022/05/12 11:57:32;;;;;;;2.72;0.85;;;22.70;99.90;;;;;;5071718;28;48656;-80
2022/05/12 12:00:08;;;;;;;3.10;0.90;;;22.80;99.90;;;;;;5068409;28;39722;-81
2022/05/12 12:02:38;;;;;;;2.50;1.05;;;22.40;99.90;;;;;;5067355;27;48037;-80
2022/05/12 12:05:08;;;;;;;2.55;1.13;;;22.00;99.90;;;;;;5077208;27;37963;-81
2022/05/12 12:07:35;;;;;;;6.22;1.15;;;21.80;99.90;;;;;;5076786;28;38003;-81
2022/05/12 12:10:23;;;;;;;3.53;1.02;;;21.70;99.90;;;;;;5078878;28;39758;-80
2022/05/12 12:12:57;;;;;;;1.80;0.77;;;22.00;99.90;;;;;;5057162;28;48762;-81
2022/05/12 12:15:30;;;;;;;5.32;1.23;;;21.70;99.90;;;;;;5059718;27;38661;-79
2022/05/12 12:17:57;;;;;;;2.67;1.10;;;22.00;99.90;;;;;;5054178;28;36250;-80
2022/05/12 12:20:29;;;;;;;2.95;1.05;;;22.10;99.90;;;;;;5065399;28;39935;-81
2022/05/12 12:23:17;;;;;;;4.07;1.00;;;22.10;99.90;;;;;;5059406;28;39236;-79
2022/05/12 12:25:47;;;;;;;3.88;0.88;;;22.10;99.90;;;;;;5064532;28;48481;-80
2022/05/12 12:28:25;;;;;;;3.92;1.20;;;22.50;99.90;;;;;;5056238;28;37962;-80
2022/05/12 12:30:55;;;;;;;5.00;0.80;;;22.70;99.90;;;;;;5056865;28;39612;-80
2022/05/12 12:33:24;;;;;;;2.55;0.98;;;22.90;99.90;;;;;;5055975;28;39094;-80
2022/05/12 12:36:00;;;;;;;2.50;1.20;;;22.70;99.90;;;;;;5074208;28;38635;-82
2022/05/12 12:38:46;;;;;;;3.78;0.93;;;22.60;99.90;;;;;;5106504;27;46977;-79
2022/05/12 12:41:15;;;;;;;2.00;0.82;;;22.30;99.90;;;;;;5076676;27;38804;-81
2022/05/12 12:43:55;;;;;;;3.35;0.77;;;22.20;99.90;;;;;;5078503;27;39170;-82
2022/05/12 12:46:43;;;;;;;3.85;1.02;;;22.30;99.90;;;;;;5069864;28;38919;-80
2022/05/12 12:49:21;;;;;;;3.53;0.80;;;22.50;99.90;;;;;;5073394;27;37250;-80
2022/05/12 12:52:05;;;;;;;5.82;1.20;;;22.50;99.90;;;;;;5075902;28;40126;-79
2022/05/12 12:57:45;;;;;;;2.78;0.80;;;22.50;99.90;;;;;;5082817;28;39283;-80
2022/05/12 13:00:16;;;;;;;1.33;0.50;;;22.80;99.90;;;;;;5078413;28;37812;-80
2022/05/12 13:02:45;;;;;;;3.38;1.27;;;22.90;99.90;;;;;;5089525;27;39624;-80
2022/05/12 13:05:16;;;;;;;2.88;0.93;;;22.50;99.90;;;;;;5079407;28;37898;-80
2022/05/12 13:07:43;;;;;;;3.08;0.85;;;22.30;99.90;;;;;;5080618;28;38098;-78
2022/05/12 13:10:16;;;;;;;2.95;0.80;;;22.30;99.90;;;;;;5074450;28;38553;-80
2022/05/12 13:13:03;;;;;;;2.53;0.77;;;22.20;99.90;;;;;;5082606;27;39893;-79
2022/05/12 13:15:32;;;;;;;3.78;1.20;;;22.10;99.90;;;;;;5071624;28;48734;-77
2022/05/12 13:18:04;;;;;;;3.40;0.98;;;22.10;99.90;;;;;;5079927;28;38941;-79
2022/05/12 13:20:32;;;;;;;;;;;22.20;99.90;;;;;;5059585;28;47301;-79
2022/05/12 13:23:09;;;;;;;1.95;0.60;;;22.10;99.90;;;;;;5062686;28;40054;-80
2022/05/12 13:25:41;;;;;;;4.32;0.85;;;22.10;99.90;;;;;;5076178;28;47843;-79
2022/05/12 13:28:18;;;;;;;3.10;0.80;;;22.40;99.90;;;;;;5068059;28;38684;-79
2022/05/12 13:30:50;;;;;;;1.75;0.80;;;22.30;99.90;;;;;;5070965;28;37769;-79